PWSweather.com
Personal Weather Stations
Station Observations
KOMOKA
Komoka Village, Komoka, ON N0L IRO

Komoka VillageKomoka, ON N0L IRO

Lat: 42.9542444, Lon: -81.4348861

Elevation: 805

Station Type: Davis Vantage Pro 2

www.komokaweather.com

High Low Average
Temperature 51.4°F10.8°C 28.0°F-2.2°C 40.9°F4.9°C
Dew Point 43.9°F6.6°C 21.7°F-5.7°C 31.8°F-0.1°C
Winds 11.0 mph 17.7 kmh Calm Calm 3.0 mph N4.8 kmh N
Wind Gusts 27.0 mph43.5 kmh -- 9.0 mph14.5 kmh
Humidity 78% 53% 70%
Pressure 30.20 in1022.7 mb 29.65 in1004.1 mb -
Precipitation 0.35 in8.9 mm - -
Hour Temp Dew Point Humidity Winds Wind Gusts Pressure Precip Precip Rate Daily Precip Total
12:03 AM 31.3°F-0.4°C 24.6°F-4.1°C 76% Calm Calm -- 30.19 in1022.4 mb 0.00 in0.0 mm 0.00 in0.0 mm 0.00 in0.0 mm
12:10 AM 30.9°F-0.6°C 24.3°F-4.3°C 76% Calm Calm -- 30.19 in1022.4 mb 0.00 in0.0 mm 0.00 in0.0 mm 0.00 in0.0 mm
12:17 AM 30.7°F-0.7°C 24.1°F-4.4°C 76% Calm Calm -- 30.19 in1022.4 mb 0.00 in0.0 mm 0.00 in0.0 mm 0.00 in0.0 mm
12:24 AM 30.7°F-0.7°C 24.1°F-4.4°C 76% Calm Calm -- 30.19 in1022.4 mb 0.00 in0.0 mm 0.00 in0.0 mm 0.00 in0.0 mm
12:31 AM 30.6°F-0.8°C 23.9°F-4.5°C 76% Calm Calm -- 30.18 in1022.0 mb 0.00 in0.0 mm 0.00 in0.0 mm 0.00 in0.0 mm
12:38 AM 30.2°F-1.0°C 23.5°F-4.7°C 76% Calm Calm -- 30.18 in1022.0 mb 0.00 in0.0 mm 0.00 in0.0 mm 0.00 in0.0 mm
12:45 AM 30.0°F-1.1°C 23.4°F-4.8°C 76% Calm Calm -- 30.18 in1022.0 mb 0.00 in0.0 mm 0.00 in0.0 mm 0.00 in0.0 mm
12:52 AM 30.0°F-1.1°C 23.4°F-4.8°C 76% Calm Calm -- 30.17 in1021.7 mb 0.00 in0.0 mm 0.00 in0.0 mm 0.00 in0.0 mm
12:59 AM 30.0°F-1.1°C 23.4°F-4.8°C 76% Calm Calm -- 30.17 in1021.7 mb 0.00 in0.0 mm 0.00 in0.0 mm 0.00 in0.0 mm
01:06 AM 30.0°F-1.1°C 23.4°F-4.8°C 76% Calm Calm -- 30.17 in1021.7 mb 0.00 in0.0 mm 0.00 in0.0 mm 0.00 in0.0 mm
01:13 AM 29.8°F-1.2°C 23.2°F-4.9°C 76% Calm Calm -- 30.17 in1021.7 mb 0.00 in0.0 mm 0.00 in0.0 mm 0.00 in0.0 mm
01:20 AM 30.0°F-1.1°C 23.4°F-4.8°C 76% Calm Calm -- 30.17 in1021.7 mb 0.00 in0.0 mm 0.00 in0.0 mm 0.00 in0.0 mm
01:27 AM 30.0°F-1.1°C 23.4°F-4.8°C 76% Calm Calm -- 30.17 in1021.7 mb 0.00 in0.0 mm 0.00 in0.0 mm 0.00 in0.0 mm
01:34 AM 29.7°F-1.3°C 23.0°F-5.0°C 76% Calm Calm -- 30.17 in1021.7 mb 0.00 in0.0 mm 0.00 in0.0 mm 0.00 in0.0 mm
01:41 AM 29.7°F-1.3°C 23.0°F-5.0°C 76% Calm Calm -- 30.17 in1021.7 mb 0.00 in0.0 mm 0.00 in0.0 mm 0.00 in0.0 mm
01:48 AM 29.5°F-1.4°C 22.8°F-5.1°C 76% Calm Calm -- 30.17 in1021.7 mb 0.00 in0.0 mm 0.00 in0.0 mm 0.00 in0.0 mm
01:55 AM 29.7°F-1.3°C 23.4°F-4.8°C 77% Calm Calm -- 30.18 in1022.0 mb 0.00 in0.0 mm 0.00 in0.0 mm 0.00 in0.0 mm
02:02 AM 30.0°F-1.1°C 23.7°F-4.6°C 77% Calm Calm -- 30.18 in1022.0 mb 0.00 in0.0 mm 0.00 in0.0 mm 0.00 in0.0 mm
02:09 AM 30.0°F-1.1°C 23.7°F-4.6°C 77% Calm Calm -- 30.19 in1022.4 mb 0.00 in0.0 mm 0.00 in0.0 mm 0.00 in0.0 mm
02:16 AM 30.2°F-1.0°C 23.9°F-4.5°C 77% Calm Calm -- 30.19 in1022.4 mb 0.00 in0.0 mm 0.00 in0.0 mm 0.00 in0.0 mm
02:23 AM 30.0°F-1.1°C 23.7°F-4.6°C 77% Calm Calm -- 30.19 in1022.4 mb 0.00 in0.0 mm 0.00 in0.0 mm 0.00 in0.0 mm
02:30 AM 29.8°F-1.2°C 23.5°F-4.7°C 77% Calm Calm -- 30.19 in1022.4 mb 0.00 in0.0 mm 0.00 in0.0 mm 0.00 in0.0 mm
02:37 AM 29.7°F-1.3°C 23.4°F-4.8°C 77% Calm Calm -- 30.19 in1022.4 mb 0.00 in0.0 mm 0.00 in0.0 mm 0.00 in0.0 mm
02:44 AM 29.1°F-1.6°C 22.8°F-5.1°C 77% Calm Calm -- 30.19 in1022.4 mb 0.00 in0.0 mm 0.00 in0.0 mm 0.00 in0.0 mm
02:51 AM 29.1°F-1.6°C 22.8°F-5.1°C 77% Calm Calm -- 30.19 in1022.4 mb 0.00 in0.0 mm 0.00 in0.0 mm 0.00 in0.0 mm
02:58 AM 28.9°F-1.7°C 22.6°F-5.2°C 77% Calm Calm -- 30.19 in1022.4 mb 0.00 in0.0 mm 0.00 in0.0 mm 0.00 in0.0 mm
03:05 AM 29.1°F-1.6°C 22.8°F-5.1°C 77% Calm Calm -- 30.20 in1022.7 mb 0.00 in0.0 mm 0.00 in0.0 mm 0.00 in0.0 mm
03:12 AM 28.9°F-1.7°C 22.6°F-5.2°C 77% Calm Calm -- 30.20 in1022.7 mb 0.00 in0.0 mm 0.00 in0.0 mm 0.00 in0.0 mm
03:19 AM 29.1°F-1.6°C 22.8°F-5.1°C 77% Calm Calm -- 30.20 in1022.7 mb 0.00 in0.0 mm 0.00 in0.0 mm 0.00 in0.0 mm
03:26 AM 28.9°F-1.7°C 22.6°F-5.2°C 77% Calm Calm -- 30.20 in1022.7 mb 0.00 in0.0 mm 0.00 in0.0 mm 0.00 in0.0 mm
03:33 AM 28.9°F-1.7°C 22.6°F-5.2°C 77% Calm Calm -- 30.20 in1022.7 mb 0.00 in0.0 mm 0.00 in0.0 mm 0.00 in0.0 mm
03:40 AM 28.8°F-1.8°C 22.5°F-5.3°C 77% Calm Calm -- 30.20 in1022.7 mb 0.00 in0.0 mm 0.00 in0.0 mm 0.00 in0.0 mm
03:47 AM 28.6°F-1.9°C 22.3°F-5.4°C 77% Calm Calm -- 30.19 in1022.4 mb 0.00 in0.0 mm 0.00 in0.0 mm 0.00 in0.0 mm
03:54 AM 28.6°F-1.9°C 22.3°F-5.4°C 77% Calm Calm -- 30.19 in1022.4 mb 0.00 in0.0 mm 0.00 in0.0 mm 0.00 in0.0 mm
04:01 AM 28.6°F-1.9°C 22.3°F-5.4°C 77% Calm Calm -- 30.20 in1022.7 mb 0.00 in0.0 mm 0.00 in0.0 mm 0.00 in0.0 mm
04:08 AM 28.8°F-1.8°C 22.5°F-5.3°C 77% Calm Calm -- 30.20 in1022.7 mb 0.00 in0.0 mm 0.00 in0.0 mm 0.00 in0.0 mm
04:15 AM 28.9°F-1.7°C 22.6°F-5.2°C 77% Calm Calm -- 30.19 in1022.4 mb 0.00 in0.0 mm 0.00 in0.0 mm 0.00 in0.0 mm
04:22 AM 28.9°F-1.7°C 22.6°F-5.2°C 77% Calm Calm -- 30.20 in1022.7 mb 0.00 in0.0 mm 0.00 in0.0 mm 0.00 in0.0 mm
04:29 AM 28.8°F-1.8°C 22.5°F-5.3°C 77% Calm Calm -- 30.20 in1022.7 mb 0.00 in0.0 mm 0.00 in0.0 mm 0.00 in0.0 mm
04:36 AM 28.6°F-1.9°C 22.3°F-5.4°C 77% Calm Calm -- 30.20 in1022.7 mb 0.00 in0.0 mm 0.00 in0.0 mm 0.00 in0.0 mm
04:43 AM 28.4°F-2.0°C 22.1°F-5.5°C 77% Calm Calm -- 30.20 in1022.7 mb 0.00 in0.0 mm 0.00 in0.0 mm 0.00 in0.0 mm
04:50 AM 28.0°F-2.2°C 21.7°F-5.7°C 77% Calm Calm -- 30.20 in1022.7 mb 0.00 in0.0 mm 0.00 in0.0 mm 0.00 in0.0 mm
04:57 AM 28.0°F-2.2°C 21.7°F-5.7°C 77% Calm Calm -- 30.20 in1022.7 mb 0.00 in0.0 mm 0.00 in0.0 mm 0.00 in0.0 mm
05:04 AM 28.0°F-2.2°C 21.7°F-5.7°C 77% Calm Calm -- 30.20 in1022.7 mb 0.00 in0.0 mm 0.00 in0.0 mm 0.00 in0.0 mm
05:11 AM 28.0°F-2.2°C 21.7°F-5.7°C 77% Calm Calm -- 30.20 in1022.7 mb 0.00 in0.0 mm 0.00 in0.0 mm 0.00 in0.0 mm
05:18 AM 28.2°F-2.1°C 21.9°F-5.6°C 77% Calm Calm -- 30.20 in1022.7 mb 0.00 in0.0 mm 0.00 in0.0 mm 0.00 in0.0 mm
05:25 AM 28.2°F-2.1°C 21.9°F-5.6°C 77% Calm Calm -- 30.20 in1022.7 mb 0.00 in0.0 mm 0.00 in0.0 mm 0.00 in0.0 mm
05:32 AM 28.4°F-2.0°C 22.1°F-5.5°C 77% Calm Calm -- 30.20 in1022.7 mb 0.00 in0.0 mm 0.00 in0.0 mm 0.00 in0.0 mm
05:39 AM 28.8°F-1.8°C 22.5°F-5.3°C 77% Calm Calm -- 30.20 in1022.7 mb 0.00 in0.0 mm 0.00 in0.0 mm 0.00 in0.0 mm
05:46 AM 29.1°F-1.6°C 22.8°F-5.1°C 77% Calm Calm -- 30.20 in1022.7 mb 0.00 in0.0 mm 0.00 in0.0 mm 0.00 in0.0 mm
05:53 AM 29.3°F-1.5°C 23.0°F-5.0°C 77% Calm Calm -- 30.20 in1022.7 mb 0.00 in0.0 mm 0.00 in0.0 mm 0.00 in0.0 mm
06:00 AM 28.9°F-1.7°C 22.6°F-5.2°C 77% Calm Calm -- 30.19 in1022.4 mb 0.00 in0.0 mm 0.00 in0.0 mm 0.00 in0.0 mm
06:07 AM 29.3°F-1.5°C 23.0°F-5.0°C 77% Calm Calm -- 30.19 in1022.4 mb 0.00 in0.0 mm 0.00 in0.0 mm 0.00 in0.0 mm
06:14 AM 29.5°F-1.4°C 23.0°F-5.0°C 77% Calm Calm -- 30.20 in1022.7 mb 0.00 in0.0 mm 0.00 in0.0 mm 0.00 in0.0 mm
06:21 AM 29.5°F-1.4°C 23.0°F-5.0°C 77% Calm Calm -- 30.20 in1022.7 mb 0.00 in0.0 mm 0.00 in0.0 mm 0.00 in0.0 mm
06:28 AM 29.5°F-1.4°C 23.2°F-4.9°C 77% Calm Calm -- 30.20 in1022.7 mb 0.00 in0.0 mm 0.00 in0.0 mm 0.00 in0.0 mm
06:35 AM 29.3°F-1.5°C 23.0°F-5.0°C 77% Calm Calm -- 30.20 in1022.7 mb 0.00 in0.0 mm 0.00 in0.0 mm 0.00 in0.0 mm
06:42 AM 29.1°F-1.6°C 22.8°F-5.1°C 77% Calm Calm -- 30.20 in1022.7 mb 0.00 in0.0 mm 0.00 in0.0 mm 0.00 in0.0 mm
06:49 AM 28.9°F-1.7°C 22.6°F-5.2°C 77% Calm Calm -- 30.20 in1022.7 mb 0.00 in0.0 mm 0.00 in0.0 mm 0.00 in0.0 mm
06:56 AM 28.8°F-1.8°C 22.5°F-5.3°C 77% Calm Calm -- 30.20 in1022.7 mb 0.00 in0.0 mm 0.00 in0.0 mm 0.00 in0.0 mm
07:03 AM 28.8°F-1.8°C 22.5°F-5.3°C 77% Calm Calm -- 30.20 in1022.7 mb 0.00 in0.0 mm 0.00 in0.0 mm 0.00 in0.0 mm
07:10 AM 28.8°F-1.8°C 22.5°F-5.3°C 77% Calm Calm -- 30.20 in1022.7 mb 0.00 in0.0 mm 0.00 in0.0 mm 0.00 in0.0 mm
07:17 AM 28.8°F-1.8°C 22.5°F-5.3°C 77% Calm Calm -- 30.19 in1022.4 mb 0.00 in0.0 mm 0.00 in0.0 mm 0.00 in0.0 mm
07:24 AM 28.9°F-1.7°C 22.6°F-5.2°C 77% Calm Calm -- 30.20 in1022.7 mb 0.00 in0.0 mm 0.00 in0.0 mm 0.00 in0.0 mm
07:31 AM 29.7°F-1.3°C 23.4°F-4.8°C 77% Calm Calm -- 30.20 in1022.7 mb 0.00 in0.0 mm 0.00 in0.0 mm 0.00 in0.0 mm
07:38 AM 30.0°F-1.1°C 23.7°F-4.6°C 77% Calm Calm -- 30.19 in1022.4 mb 0.00 in0.0 mm 0.00 in0.0 mm 0.00 in0.0 mm
07:45 AM 30.6°F-0.8°C 24.1°F-4.4°C 77% Calm Calm -- 30.19 in1022.4 mb 0.00 in0.0 mm 0.00 in0.0 mm 0.00 in0.0 mm
07:52 AM 30.9°F-0.6°C 24.6°F-4.1°C 77% Calm Calm -- 30.19 in1022.4 mb 0.00 in0.0 mm 0.00 in0.0 mm 0.00 in0.0 mm
07:59 AM 31.6°F-0.2°C 25.3°F-3.7°C 77% Calm Calm -- 30.19 in1022.4 mb 0.00 in0.0 mm 0.00 in0.0 mm 0.00 in0.0 mm
08:06 AM 32.2°F0.1°C 26.1°F-3.3°C 78% Calm Calm -- 30.19 in1022.4 mb 0.00 in0.0 mm 0.00 in0.0 mm 0.00 in0.0 mm
08:13 AM 32.5°F0.3°C 26.2°F-3.2°C 77% Calm Calm -- 30.19 in1022.4 mb 0.00 in0.0 mm 0.00 in0.0 mm 0.00 in0.0 mm
08:20 AM 33.4°F0.8°C 27.0°F-2.8°C 77% Calm Calm -- 30.20 in1022.7 mb 0.00 in0.0 mm 0.00 in0.0 mm 0.00 in0.0 mm
08:27 AM 34.2°F1.2°C 27.7°F-2.4°C 77% Calm Calm -- 30.19 in1022.4 mb 0.00 in0.0 mm 0.00 in0.0 mm 0.00 in0.0 mm
08:34 AM 35.1°F1.7°C 28.6°F-1.9°C 77% Calm Calm 4.0 mph6.4 kmh 30.19 in1022.4 mb 0.00 in0.0 mm 0.00 in0.0 mm 0.00 in0.0 mm
08:41 AM 36.1°F2.3°C 29.8°F-1.2°C 78% 3.0 mph N4.8 kmh N 5.0 mph8.0 kmh 30.19 in1022.4 mb 0.00 in0.0 mm 0.00 in0.0 mm 0.00 in0.0 mm
08:48 AM 36.9°F2.7°C 30.4°F-0.9°C 77% 1.0 mph N1.6 kmh N 4.0 mph6.4 kmh 30.19 in1022.4 mb 0.00 in0.0 mm 0.00 in0.0 mm 0.00 in0.0 mm
08:55 AM 37.2°F2.9°C 30.4°F-0.9°C 76% 1.0 mph N1.6 kmh N 3.0 mph4.8 kmh 30.19 in1022.4 mb 0.00 in0.0 mm 0.00 in0.0 mm 0.00 in0.0 mm
09:02 AM 37.6°F3.1°C 30.6°F-0.8°C 76% 1.0 mph N1.6 kmh N 4.0 mph6.4 kmh 30.18 in1022.0 mb 0.00 in0.0 mm 0.00 in0.0 mm 0.00 in0.0 mm
09:09 AM 38.1°F3.4°C 30.9°F-0.6°C 75% 3.0 mph N4.8 kmh N 5.0 mph8.0 kmh 30.18 in1022.0 mb 0.00 in0.0 mm 0.00 in0.0 mm 0.00 in0.0 mm
09:16 AM 39.6°F4.2°C 31.8°F-0.1°C 74% 4.0 mph N6.4 kmh N 9.0 mph14.5 kmh 30.17 in1021.7 mb 0.00 in0.0 mm 0.00 in0.0 mm 0.00 in0.0 mm
09:23 AM 40.5°F4.7°C 32.0°F0.0°C 72% 4.0 mph N6.4 kmh N 9.0 mph14.5 kmh 30.17 in1021.7 mb 0.00 in0.0 mm 0.00 in0.0 mm 0.00 in0.0 mm
09:30 AM 41.7°F5.4°C 32.9°F0.5°C 71% 4.0 mph N6.4 kmh N 9.0 mph14.5 kmh 30.17 in1021.7 mb 0.00 in0.0 mm 0.00 in0.0 mm 0.00 in0.0 mm
09:37 AM 42.8°F6.0°C 32.9°F0.5°C 68% 5.0 mph N8.0 kmh N 13.0 mph20.9 kmh 30.17 in1021.7 mb 0.00 in0.0 mm 0.00 in0.0 mm 0.00 in0.0 mm
09:44 AM 43.5°F6.4°C 32.5°F0.3°C 65% 5.0 mph N8.0 kmh N 13.0 mph20.9 kmh 30.17 in1021.7 mb 0.00 in0.0 mm 0.00 in0.0 mm 0.00 in0.0 mm
09:51 AM 44.1°F6.7°C 32.7°F0.4°C 64% 5.0 mph N8.0 kmh N 12.0 mph19.3 kmh 30.17 in1021.7 mb 0.00 in0.0 mm 0.00 in0.0 mm 0.00 in0.0 mm
09:58 AM 43.9°F6.6°C 31.3°F-0.4°C 61% 4.0 mph N6.4 kmh N 11.0 mph17.7 kmh 30.16 in1021.3 mb 0.00 in0.0 mm 0.00 in0.0 mm 0.00 in0.0 mm
10:05 AM 44.4°F6.9°C 32.5°F0.3°C 63% 5.0 mph N8.0 kmh N 12.0 mph19.3 kmh 30.16 in1021.3 mb 0.00 in0.0 mm 0.00 in0.0 mm 0.00 in0.0 mm
10:12 AM 45.1°F7.3°C 31.6°F-0.2°C 59% 5.0 mph N8.0 kmh N 12.0 mph19.3 kmh 30.15 in1021.0 mb 0.00 in0.0 mm 0.00 in0.0 mm 0.00 in0.0 mm
10:19 AM 45.5°F7.5°C 32.0°F0.0°C 59% 4.0 mph N6.4 kmh N 12.0 mph19.3 kmh 30.16 in1021.3 mb 0.00 in0.0 mm 0.00 in0.0 mm 0.00 in0.0 mm
10:26 AM 45.5°F7.5°C 32.0°F0.0°C 59% 7.0 mph N11.3 kmh N 13.0 mph20.9 kmh 30.15 in1021.0 mb 0.00 in0.0 mm 0.00 in0.0 mm 0.00 in0.0 mm
10:33 AM 46.0°F7.8°C 31.6°F-0.2°C 57% 5.0 mph N8.0 kmh N 15.0 mph24.1 kmh 30.15 in1021.0 mb 0.00 in0.0 mm 0.00 in0.0 mm 0.00 in0.0 mm
10:40 AM 45.9°F7.7°C 31.5°F-0.3°C 57% 7.0 mph N11.3 kmh N 17.0 mph27.4 kmh 30.14 in1020.7 mb 0.00 in0.0 mm 0.00 in0.0 mm 0.00 in0.0 mm
10:47 AM 46.6°F8.1°C 32.2°F0.1°C 57% 7.0 mph N11.3 kmh N 17.0 mph27.4 kmh 30.13 in1020.3 mb 0.00 in0.0 mm 0.00 in0.0 mm 0.00 in0.0 mm
10:54 AM 47.7°F8.7°C 31.5°F-0.3°C 53% 5.0 mph N8.0 kmh N 15.0 mph24.1 kmh 30.13 in1020.3 mb 0.00 in0.0 mm 0.00 in0.0 mm 0.00 in0.0 mm
11:01 AM 47.7°F8.7°C 32.2°F0.1°C 55% 7.0 mph N11.3 kmh N 15.0 mph24.1 kmh 30.14 in1020.7 mb 0.00 in0.0 mm 0.00 in0.0 mm 0.00 in0.0 mm
11:08 AM 47.5°F8.6°C 31.6°F-0.2°C 54% 5.0 mph N8.0 kmh N 16.0 mph25.7 kmh 30.13 in1020.3 mb 0.00 in0.0 mm 0.00 in0.0 mm 0.00 in0.0 mm
11:15 AM 48.0°F8.9°C 32.2°F0.1°C 54% 4.0 mph N6.4 kmh N 12.0 mph19.3 kmh 30.13 in1020.3 mb 0.00 in0.0 mm 0.00 in0.0 mm 0.00 in0.0 mm
11:22 AM 48.2°F9.0°C 32.7°F0.4°C 55% 5.0 mph N8.0 kmh N 16.0 mph25.7 kmh 30.13 in1020.3 mb 0.00 in0.0 mm 0.00 in0.0 mm 0.00 in0.0 mm
11:29 AM 48.0°F8.9°C 33.4°F0.8°C 57% 3.0 mph N4.8 kmh N 8.0 mph12.9 kmh 30.13 in1020.3 mb 0.00 in0.0 mm 0.00 in0.0 mm 0.00 in0.0 mm
11:36 AM 47.7°F8.7°C 33.3°F0.7°C 57% 3.0 mph N4.8 kmh N 8.0 mph12.9 kmh 30.12 in1020.0 mb 0.00 in0.0 mm 0.00 in0.0 mm 0.00 in0.0 mm
11:43 AM 47.8°F8.8°C 33.8°F1.0°C 58% 4.0 mph N6.4 kmh N 9.0 mph14.5 kmh 30.11 in1019.6 mb 0.00 in0.0 mm 0.00 in0.0 mm 0.00 in0.0 mm
11:50 AM 48.0°F8.9°C 33.6°F0.9°C 57% 3.0 mph N4.8 kmh N 8.0 mph12.9 kmh 30.12 in1020.0 mb 0.00 in0.0 mm 0.00 in0.0 mm 0.00 in0.0 mm
11:57 AM 48.2°F9.0°C 33.6°F0.9°C 57% 3.0 mph N4.8 kmh N 8.0 mph12.9 kmh 30.12 in1020.0 mb 0.00 in0.0 mm 0.00 in0.0 mm 0.00 in0.0 mm
12:04 PM 48.2°F9.0°C 33.6°F0.9°C 57% 3.0 mph N4.8 kmh N 7.0 mph11.3 kmh 30.11 in1019.6 mb 0.00 in0.0 mm 0.00 in0.0 mm 0.00 in0.0 mm
12:11 PM 48.2°F9.0°C 34.2°F1.2°C 58% 3.0 mph N4.8 kmh N 9.0 mph14.5 kmh 30.11 in1019.6 mb 0.00 in0.0 mm 0.00 in0.0 mm 0.00 in0.0 mm
12:18 PM 48.0°F8.9°C 34.0°F1.1°C 58% 4.0 mph N6.4 kmh N 9.0 mph14.5 kmh 30.10 in1019.3 mb 0.00 in0.0 mm 0.00 in0.0 mm 0.00 in0.0 mm
12:25 PM 48.0°F8.9°C 34.0°F1.1°C 58% 4.0 mph N6.4 kmh N 9.0 mph14.5 kmh 30.09 in1019.0 mb 0.00 in0.0 mm 0.00 in0.0 mm 0.00 in0.0 mm
12:32 PM 48.0°F8.9°C 34.0°F1.1°C 58% 4.0 mph N6.4 kmh N 8.0 mph12.9 kmh 30.09 in1019.0 mb 0.00 in0.0 mm 0.00 in0.0 mm 0.00 in0.0 mm
12:39 PM 48.6°F9.2°C 34.9°F1.6°C 59% 4.0 mph N6.4 kmh N 8.0 mph12.9 kmh 30.09 in1019.0 mb 0.00 in0.0 mm 0.00 in0.0 mm 0.00 in0.0 mm
12:46 PM 48.7°F9.3°C 35.1°F1.7°C 59% 4.0 mph N6.4 kmh N 9.0 mph14.5 kmh 30.08 in1018.6 mb 0.00 in0.0 mm 0.00 in0.0 mm 0.00 in0.0 mm
12:53 PM 48.9°F9.4°C 34.3°F1.3°C 57% 4.0 mph N6.4 kmh N 9.0 mph14.5 kmh 30.08 in1018.6 mb 0.00 in0.0 mm 0.00 in0.0 mm 0.00 in0.0 mm
01:00 PM 49.5°F9.7°C 35.2°F1.8°C 58% 4.0 mph N6.4 kmh N 8.0 mph12.9 kmh 30.07 in1018.3 mb 0.00 in0.0 mm 0.00 in0.0 mm 0.00 in0.0 mm
01:07 PM 49.5°F9.7°C 34.9°F1.6°C 57% 4.0 mph N6.4 kmh N 13.0 mph20.9 kmh 30.07 in1018.3 mb 0.00 in0.0 mm 0.00 in0.0 mm 0.00 in0.0 mm
01:14 PM 49.6°F9.8°C 35.1°F1.7°C 57% 4.0 mph N6.4 kmh N 13.0 mph20.9 kmh 30.06 in1017.9 mb 0.00 in0.0 mm 0.00 in0.0 mm 0.00 in0.0 mm
01:21 PM 49.5°F9.7°C 35.2°F1.8°C 58% 5.0 mph N8.0 kmh N 15.0 mph24.1 kmh 30.06 in1017.9 mb 0.00 in0.0 mm 0.00 in0.0 mm 0.00 in0.0 mm
01:28 PM 49.8°F9.9°C 35.6°F2.0°C 58% 5.0 mph N8.0 kmh N 13.0 mph20.9 kmh 30.05 in1017.6 mb 0.00 in0.0 mm 0.00 in0.0 mm 0.00 in0.0 mm
01:35 PM 49.6°F9.8°C 35.4°F1.9°C 58% 7.0 mph N11.3 kmh N 16.0 mph25.7 kmh 30.04 in1017.3 mb 0.00 in0.0 mm 0.00 in0.0 mm 0.00 in0.0 mm
01:42 PM 50.0°F10.0°C 36.1°F2.3°C 59% 5.0 mph N8.0 kmh N 16.0 mph25.7 kmh 30.04 in1017.3 mb 0.00 in0.0 mm 0.00 in0.0 mm 0.00 in0.0 mm
01:49 PM 50.2°F10.1°C 36.0°F2.2°C 58% 4.0 mph N6.4 kmh N 8.0 mph12.9 kmh 30.04 in1017.3 mb 0.00 in0.0 mm 0.00 in0.0 mm 0.00 in0.0 mm
01:56 PM 50.5°F10.3°C 36.3°F2.4°C 58% 5.0 mph N8.0 kmh N 15.0 mph24.1 kmh 30.04 in1017.3 mb 0.00 in0.0 mm 0.00 in0.0 mm 0.00 in0.0 mm
02:03 PM 50.5°F10.3°C 35.8°F2.1°C 57% 5.0 mph N8.0 kmh N 15.0 mph24.1 kmh 30.03 in1016.9 mb 0.00 in0.0 mm 0.00 in0.0 mm 0.00 in0.0 mm
02:10 PM 50.7°F10.4°C 36.1°F2.3°C 57% 5.0 mph N8.0 kmh N 13.0 mph20.9 kmh 30.03 in1016.9 mb 0.00 in0.0 mm 0.00 in0.0 mm 0.00 in0.0 mm
02:17 PM 50.5°F10.3°C 36.0°F2.2°C 57% 5.0 mph N8.0 kmh N 15.0 mph24.1 kmh 30.03 in1016.9 mb 0.00 in0.0 mm 0.00 in0.0 mm 0.00 in0.0 mm
02:24 PM 50.7°F10.4°C 36.0°F2.2°C 57% 5.0 mph N8.0 kmh N 13.0 mph20.9 kmh 30.03 in1016.9 mb 0.00 in0.0 mm 0.00 in0.0 mm 0.00 in0.0 mm
02:31 PM 50.7°F10.4°C 36.5°F2.5°C 58% 4.0 mph N6.4 kmh N 9.0 mph14.5 kmh 30.02 in1016.6 mb 0.00 in0.0 mm 0.00 in0.0 mm 0.00 in0.0 mm
02:38 PM 50.7°F10.4°C 36.5°F2.5°C 58% 3.0 mph N4.8 kmh N 9.0 mph14.5 kmh 30.02 in1016.6 mb 0.00 in0.0 mm 0.00 in0.0 mm 0.00 in0.0 mm
02:45 PM 50.4°F10.2°C 35.8°F2.1°C 57% 4.0 mph N6.4 kmh N 13.0 mph20.9 kmh 30.01 in1016.3 mb 0.00 in0.0 mm 0.00 in0.0 mm 0.00 in0.0 mm
02:52 PM 50.2°F10.1°C 35.6°F2.0°C 57% 5.0 mph N8.0 kmh N 15.0 mph24.1 kmh 30.01 in1016.3 mb 0.00 in0.0 mm 0.00 in0.0 mm 0.00 in0.0 mm
02:59 PM 50.2°F10.1°C 36.0°F2.2°C 58% 5.0 mph N8.0 kmh N 16.0 mph25.7 kmh 30.01 in1016.3 mb 0.00 in0.0 mm 0.00 in0.0 mm 0.00 in0.0 mm
03:06 PM 50.0°F10.0°C 35.8°F2.1°C 58% 5.0 mph N8.0 kmh N 15.0 mph24.1 kmh 30.00 in1015.9 mb 0.00 in0.0 mm 0.00 in0.0 mm 0.00 in0.0 mm
03:13 PM 49.8°F9.9°C 36.0°F2.2°C 59% 4.0 mph N6.4 kmh N 15.0 mph24.1 kmh 30.00 in1015.9 mb 0.00 in0.0 mm 0.00 in0.0 mm 0.00 in0.0 mm
03:20 PM 49.3°F9.6°C 36.0°F2.2°C 60% 5.0 mph N8.0 kmh N 15.0 mph24.1 kmh 30.00 in1015.9 mb 0.00 in0.0 mm 0.00 in0.0 mm 0.00 in0.0 mm
03:27 PM 48.9°F9.4°C 36.5°F2.5°C 62% 5.0 mph N8.0 kmh N 12.0 mph19.3 kmh 29.99 in1015.6 mb 0.00 in0.0 mm 0.00 in0.0 mm 0.00 in0.0 mm
03:34 PM 48.6°F9.2°C 36.5°F2.5°C 63% 5.0 mph N8.0 kmh N 13.0 mph20.9 kmh 29.99 in1015.6 mb 0.00 in0.0 mm 0.00 in0.0 mm 0.00 in0.0 mm
03:41 PM 48.4°F9.1°C 36.7°F2.6°C 64% 4.0 mph N6.4 kmh N 13.0 mph20.9 kmh 29.99 in1015.6 mb 0.00 in0.0 mm 0.00 in0.0 mm 0.00 in0.0 mm
03:48 PM 47.8°F8.8°C 36.7°F2.6°C 65% 4.0 mph N6.4 kmh N 12.0 mph19.3 kmh 29.99 in1015.6 mb 0.01 in0.3 mm 0.09 in2.3 mm 0.01 in0.3 mm
03:55 PM 47.7°F8.7°C 37.2°F2.9°C 67% 4.0 mph N6.4 kmh N 8.0 mph12.9 kmh 29.99 in1015.6 mb 0.01 in0.3 mm 0.00 in0.0 mm 0.01 in0.3 mm
04:02 PM 47.5°F8.6°C 37.0°F2.8°C 67% 3.0 mph N4.8 kmh N 9.0 mph14.5 kmh 29.99 in1015.6 mb 0.01 in0.3 mm 0.00 in0.0 mm 0.01 in0.3 mm
04:09 PM 47.3°F8.5°C 36.9°F2.7°C 67% 3.0 mph N4.8 kmh N 5.0 mph8.0 kmh 29.99 in1015.6 mb 0.02 in0.5 mm 0.09 in2.3 mm 0.02 in0.5 mm
04:16 PM 46.9°F8.3°C 37.0°F2.8°C 68% 3.0 mph N4.8 kmh N 7.0 mph11.3 kmh 29.98 in1015.2 mb 0.02 in0.5 mm 0.00 in0.0 mm 0.02 in0.5 mm
04:23 PM 46.9°F8.3°C 36.9°F2.7°C 68% 3.0 mph N4.8 kmh N 8.0 mph12.9 kmh 29.98 in1015.2 mb 0.02 in0.5 mm 0.00 in0.0 mm 0.02 in0.5 mm
04:30 PM 46.8°F8.2°C 36.7°F2.6°C 68% 3.0 mph N4.8 kmh N 8.0 mph12.9 kmh 29.98 in1015.2 mb 0.02 in0.5 mm 0.00 in0.0 mm 0.02 in0.5 mm
04:37 PM 46.6°F8.1°C 37.0°F2.8°C 69% 3.0 mph N4.8 kmh N 7.0 mph11.3 kmh 29.97 in1014.9 mb 0.02 in0.5 mm 0.00 in0.0 mm 0.02 in0.5 mm
04:44 PM 46.4°F8.0°C 36.9°F2.7°C 69% 3.0 mph N4.8 kmh N 8.0 mph12.9 kmh 29.97 in1014.9 mb 0.03 in0.8 mm 0.09 in2.3 mm 0.03 in0.8 mm
04:51 PM 46.2°F7.9°C 36.7°F2.6°C 69% 4.0 mph N6.4 kmh N 9.0 mph14.5 kmh 29.97 in1014.9 mb 0.02 in0.5 mm 0.00 in0.0 mm 0.03 in0.8 mm
04:58 PM 46.2°F7.9°C 36.5°F2.5°C 69% 4.0 mph N6.4 kmh N 9.0 mph14.5 kmh 29.96 in1014.6 mb 0.02 in0.5 mm 0.00 in0.0 mm 0.03 in0.8 mm
05:05 PM 46.2°F7.9°C 36.7°F2.6°C 69% 5.0 mph N8.0 kmh N 13.0 mph20.9 kmh 29.95 in1014.2 mb 0.02 in0.5 mm 0.00 in0.0 mm 0.03 in0.8 mm
05:12 PM 46.2°F7.9°C 36.7°F2.6°C 69% 5.0 mph N8.0 kmh N 13.0 mph20.9 kmh 29.95 in1014.2 mb 0.02 in0.5 mm 0.00 in0.0 mm 0.03 in0.8 mm
05:19 PM 46.4°F8.0°C 36.9°F2.7°C 69% 5.0 mph N8.0 kmh N 13.0 mph20.9 kmh 29.95 in1014.2 mb 0.02 in0.5 mm 0.00 in0.0 mm 0.03 in0.8 mm
05:26 PM 46.6°F8.1°C 36.5°F2.5°C 68% 7.0 mph N11.3 kmh N 17.0 mph27.4 kmh 29.94 in1013.9 mb 0.01 in0.3 mm 0.00 in0.0 mm 0.03 in0.8 mm
05:33 PM 46.6°F8.1°C 36.5°F2.5°C 68% 7.0 mph N11.3 kmh N 17.0 mph27.4 kmh 29.94 in1013.9 mb 0.01 in0.3 mm 0.00 in0.0 mm 0.03 in0.8 mm
05:40 PM 46.6°F8.1°C 36.7°F2.6°C 68% 7.0 mph N11.3 kmh N 15.0 mph24.1 kmh 29.93 in1013.5 mb 0.00 in0.0 mm 0.00 in0.0 mm 0.03 in0.8 mm
05:47 PM 46.6°F8.1°C 36.5°F2.5°C 68% 7.0 mph N11.3 kmh N 13.0 mph20.9 kmh 29.92 in1013.2 mb 0.00 in0.0 mm 0.00 in0.0 mm 0.03 in0.8 mm
05:54 PM 46.6°F8.1°C 36.5°F2.5°C 68% 7.0 mph N11.3 kmh N 16.0 mph25.7 kmh 29.92 in1013.2 mb 0.00 in0.0 mm 0.00 in0.0 mm 0.03 in0.8 mm
06:01 PM 46.6°F8.1°C 36.5°F2.5°C 68% 8.0 mph N12.9 kmh N 17.0 mph27.4 kmh 29.91 in1012.9 mb 0.00 in0.0 mm 0.00 in0.0 mm 0.03 in0.8 mm
06:08 PM 46.2°F7.9°C 36.7°F2.6°C 69% 7.0 mph N11.3 kmh N 17.0 mph27.4 kmh 29.91 in1012.9 mb 0.01 in0.3 mm 0.09 in2.3 mm 0.04 in1.0 mm
06:15 PM 46.0°F7.8°C 36.9°F2.7°C 70% 8.0 mph N12.9 kmh N 21.0 mph33.8 kmh 29.91 in1012.9 mb 0.01 in0.3 mm 0.00 in0.0 mm 0.04 in1.0 mm
06:22 PM 45.9°F7.7°C 36.7°F2.6°C 70% 8.0 mph N12.9 kmh N 19.0 mph30.6 kmh 29.90 in1012.5 mb 0.01 in0.3 mm 0.00 in0.0 mm 0.04 in1.0 mm
06:29 PM 45.9°F7.7°C 36.5°F2.5°C 70% 7.0 mph N11.3 kmh N 19.0 mph30.6 kmh 29.90 in1012.5 mb 0.02 in0.5 mm 0.09 in2.3 mm 0.05 in1.3 mm
06:36 PM 45.7°F7.6°C 36.9°F2.7°C 71% 7.0 mph N11.3 kmh N 19.0 mph30.6 kmh 29.89 in1012.2 mb 0.02 in0.5 mm 0.00 in0.0 mm 0.05 in1.3 mm
06:43 PM 45.7°F7.6°C 36.7°F2.6°C 71% 7.0 mph N11.3 kmh N 19.0 mph30.6 kmh 29.88 in1011.9 mb 0.02 in0.5 mm 0.00 in0.0 mm 0.05 in1.3 mm
06:50 PM 45.7°F7.6°C 36.9°F2.7°C 71% 8.0 mph N12.9 kmh N 20.0 mph32.2 kmh 29.87 in1011.5 mb 0.02 in0.5 mm 0.00 in0.0 mm 0.05 in1.3 mm
06:57 PM 45.7°F7.6°C 36.9°F2.7°C 71% 8.0 mph N12.9 kmh N 25.0 mph40.2 kmh 29.87 in1011.5 mb 0.02 in0.5 mm 0.00 in0.0 mm 0.06 in1.5 mm
07:04 PM 45.9°F7.7°C 37.2°F2.9°C 72% 8.0 mph N12.9 kmh N 25.0 mph40.2 kmh 29.87 in1011.5 mb 0.02 in0.5 mm 0.00 in0.0 mm 0.06 in1.5 mm
07:11 PM 45.9°F7.7°C 37.2°F2.9°C 72% 7.0 mph N11.3 kmh N 16.0 mph25.7 kmh 29.86 in1011.2 mb 0.02 in0.5 mm 0.00 in0.0 mm 0.06 in1.5 mm
07:18 PM 45.9°F7.7°C 37.2°F2.9°C 72% 8.0 mph N12.9 kmh N 19.0 mph30.6 kmh 29.86 in1011.2 mb 0.02 in0.5 mm 0.00 in0.0 mm 0.06 in1.5 mm
07:25 PM 45.9°F7.7°C 37.4°F3.0°C 72% 7.0 mph N11.3 kmh N 19.0 mph30.6 kmh 29.87 in1011.5 mb 0.03 in0.8 mm 0.09 in2.3 mm 0.07 in1.8 mm
07:32 PM 46.0°F7.8°C 37.4°F3.0°C 72% 7.0 mph N11.3 kmh N 16.0 mph25.7 kmh 29.87 in1011.5 mb 0.03 in0.8 mm 0.00 in0.0 mm 0.08 in2.0 mm
07:39 PM 46.0°F7.8°C 37.4°F3.0°C 72% 8.0 mph N12.9 kmh N 20.0 mph32.2 kmh 29.86 in1011.2 mb 0.05 in1.3 mm 0.17 in4.3 mm 0.09 in2.3 mm
07:46 PM 46.0°F7.8°C 37.6°F3.1°C 72% 8.0 mph N12.9 kmh N 20.0 mph32.2 kmh 29.85 in1010.8 mb 0.06 in1.5 mm 0.09 in2.3 mm 0.10 in2.5 mm
07:53 PM 46.0°F7.8°C 37.6°F3.1°C 72% 8.0 mph N12.9 kmh N 19.0 mph30.6 kmh 29.86 in1011.2 mb 0.06 in1.5 mm 0.00 in0.0 mm 0.11 in2.8 mm
08:00 PM 46.2°F7.9°C 37.6°F3.1°C 72% 7.0 mph N11.3 kmh N 19.0 mph30.6 kmh 29.86 in1011.2 mb 0.06 in1.5 mm 0.00 in0.0 mm 0.12 in3.0 mm
08:07 PM 46.2°F7.9°C 37.8°F3.2°C 72% 5.0 mph N8.0 kmh N 16.0 mph25.7 kmh 29.85 in1010.8 mb 0.07 in1.8 mm 0.09 in2.3 mm 0.13 in3.3 mm
08:14 PM 46.4°F8.0°C 38.3°F3.5°C 73% 7.0 mph N11.3 kmh N 16.0 mph25.7 kmh 29.84 in1010.5 mb 0.07 in1.8 mm 0.00 in0.0 mm 0.13 in3.3 mm
08:21 PM 46.6°F8.1°C 38.3°F3.5°C 73% 7.0 mph N11.3 kmh N 20.0 mph32.2 kmh 29.82 in1009.8 mb 0.08 in2.0 mm 0.09 in2.3 mm 0.15 in3.8 mm
08:28 PM 46.8°F8.2°C 38.5°F3.6°C 73% 9.0 mph N14.5 kmh N 20.0 mph32.2 kmh 29.81 in1009.5 mb 0.08 in2.0 mm 0.00 in0.0 mm 0.15 in3.8 mm
08:35 PM 47.1°F8.4°C 38.8°F3.8°C 73% 9.0 mph N14.5 kmh N 21.0 mph33.8 kmh 29.80 in1009.1 mb 0.07 in1.8 mm 0.00 in0.0 mm 0.16 in4.1 mm
08:42 PM 47.1°F8.4°C 39.0°F3.9°C 73% 11.0 mph N17.7 kmh N 21.0 mph33.8 kmh 29.80 in1009.1 mb 0.07 in1.8 mm 0.00 in0.0 mm 0.17 in4.3 mm
08:49 PM 47.3°F8.5°C 39.0°F3.9°C 73% 9.0 mph N14.5 kmh N 21.0 mph33.8 kmh 29.80 in1009.1 mb 0.07 in1.8 mm 0.00 in0.0 mm 0.17 in4.3 mm
08:56 PM 47.5°F8.6°C 39.6°F4.2°C 74% 9.0 mph N14.5 kmh N 24.0 mph38.6 kmh 29.79 in1008.8 mb 0.06 in1.5 mm 0.00 in0.0 mm 0.18 in4.6 mm
09:03 PM 47.7°F8.7°C 39.7°F4.3°C 74% 9.0 mph N14.5 kmh N 20.0 mph32.2 kmh 29.78 in1008.5 mb 0.06 in1.5 mm 0.00 in0.0 mm 0.19 in4.8 mm
09:10 PM 47.7°F8.7°C 39.7°F4.3°C 74% 9.0 mph N14.5 kmh N 27.0 mph43.5 kmh 29.78 in1008.5 mb 0.06 in1.5 mm 0.00 in0.0 mm 0.20 in5.1 mm
09:17 PM 47.8°F8.8°C 39.9°F4.4°C 74% 7.0 mph N11.3 kmh N 19.0 mph30.6 kmh 29.78 in1008.5 mb 0.07 in1.8 mm 0.09 in2.3 mm 0.21 in5.3 mm
09:24 PM 48.0°F8.9°C 40.1°F4.5°C 74% 8.0 mph N12.9 kmh N 20.0 mph32.2 kmh 29.77 in1008.1 mb 0.07 in1.8 mm 0.00 in0.0 mm 0.22 in5.6 mm
09:31 PM 48.0°F8.9°C 40.3°F4.6°C 74% 8.0 mph N12.9 kmh N 20.0 mph32.2 kmh 29.77 in1008.1 mb 0.08 in2.0 mm 0.09 in2.3 mm 0.24 in6.1 mm
09:38 PM 48.2°F9.0°C 40.3°F4.6°C 74% 7.0 mph N11.3 kmh N 16.0 mph25.7 kmh 29.76 in1007.8 mb 0.09 in2.3 mm 0.09 in2.3 mm 0.24 in6.1 mm
09:45 PM 48.4°F9.1°C 40.5°F4.7°C 74% 8.0 mph N12.9 kmh N 20.0 mph32.2 kmh 29.75 in1007.5 mb 0.07 in1.8 mm 0.00 in0.0 mm 0.24 in6.1 mm
09:52 PM 48.6°F9.2°C 40.6°F4.8°C 74% 8.0 mph N12.9 kmh N 24.0 mph38.6 kmh 29.75 in1007.5 mb 0.08 in2.0 mm 0.09 in2.3 mm 0.25 in6.4 mm
09:59 PM 48.7°F9.3°C 41.2°F5.1°C 75% 8.0 mph N12.9 kmh N 21.0 mph33.8 kmh 29.75 in1007.5 mb 0.08 in2.0 mm 0.00 in0.0 mm 0.26 in6.6 mm
10:06 PM 48.7°F9.3°C 41.2°F5.1°C 75% 7.0 mph N11.3 kmh N 21.0 mph33.8 kmh 29.76 in1007.8 mb 0.07 in1.8 mm 0.00 in0.0 mm 0.27 in6.9 mm
10:13 PM 48.9°F9.4°C 41.4°F5.2°C 75% 5.0 mph N8.0 kmh N 17.0 mph27.4 kmh 29.75 in1007.5 mb 0.09 in2.3 mm 0.17 in4.3 mm 0.29 in7.4 mm
10:20 PM 49.1°F9.5°C 41.5°F5.3°C 75% 5.0 mph N8.0 kmh N 15.0 mph24.1 kmh 29.74 in1007.1 mb 0.09 in2.3 mm 0.00 in0.0 mm 0.31 in7.9 mm
10:27 PM 49.3°F9.6°C 41.7°F5.4°C 75% 7.0 mph N11.3 kmh N 15.0 mph24.1 kmh 29.74 in1007.1 mb 0.09 in2.3 mm 0.00 in0.0 mm 0.32 in8.1 mm
10:34 PM 49.3°F9.6°C 41.7°F5.4°C 75% 7.0 mph N11.3 kmh N 19.0 mph30.6 kmh 29.70 in1005.8 mb 0.09 in2.3 mm 0.00 in0.0 mm 0.33 in8.4 mm
10:41 PM 49.6°F9.8°C 42.1°F5.6°C 75% 7.0 mph N11.3 kmh N 19.0 mph30.6 kmh 29.72 in1006.4 mb 0.09 in2.3 mm 0.00 in0.0 mm 0.34 in8.6 mm
10:48 PM 49.8°F9.9°C 42.3°F5.7°C 75% 4.0 mph N6.4 kmh N 12.0 mph19.3 kmh 29.71 in1006.1 mb 0.10 in2.5 mm 0.09 in2.3 mm 0.35 in8.9 mm
10:55 PM 50.0°F10.0°C 42.4°F5.8°C 75% 4.0 mph N6.4 kmh N 12.0 mph19.3 kmh 29.70 in1005.8 mb 0.09 in2.3 mm 0.00 in0.0 mm 0.35 in8.9 mm
11:02 PM 50.2°F10.1°C 42.6°F5.9°C 75% 5.0 mph N8.0 kmh N 15.0 mph24.1 kmh 29.70 in1005.8 mb 0.08 in2.0 mm 0.00 in0.0 mm 0.18 in4.6 mm
11:09 PM 50.2°F10.1°C 42.6°F5.9°C 75% 5.0 mph N8.0 kmh N 15.0 mph24.1 kmh 29.69 in1005.4 mb 0.07 in1.8 mm 0.00 in0.0 mm 0.18 in4.6 mm
11:16 PM 50.5°F10.3°C 42.8°F6.0°C 75% 5.0 mph N8.0 kmh N 15.0 mph24.1 kmh 29.69 in1005.4 mb 0.06 in1.5 mm 0.00 in0.0 mm 0.02 in0.5 mm
11:23 PM 50.5°F10.3°C 43.0°F6.1°C 75% 5.0 mph N8.0 kmh N 12.0 mph19.3 kmh 29.68 in1005.1 mb 0.07 in1.8 mm 0.09 in2.3 mm 0.04 in1.0 mm
11:30 PM 50.7°F10.4°C 43.2°F6.2°C 75% 4.0 mph N6.4 kmh N 15.0 mph24.1 kmh 29.67 in1004.7 mb 0.07 in1.8 mm 0.00 in0.0 mm 0.06 in1.5 mm
11:37 PM 50.9°F10.5°C 43.3°F6.3°C 75% 5.0 mph N8.0 kmh N 17.0 mph27.4 kmh 29.67 in1004.7 mb 0.08 in2.0 mm 0.09 in2.3 mm 0.07 in1.8 mm
11:44 PM 51.3°F10.7°C 43.5°F6.4°C 75% 5.0 mph N8.0 kmh N 16.0 mph25.7 kmh 29.67 in1004.7 mb 0.09 in2.3 mm 0.09 in2.3 mm 0.09 in2.3 mm
11:51 PM 51.3°F10.7°C 43.7°F6.5°C 75% 5.0 mph N8.0 kmh N 17.0 mph27.4 kmh 29.66 in1004.4 mb 0.09 in2.3 mm 0.00 in0.0 mm 0.09 in2.3 mm
11:58 PM 51.4°F10.8°C 43.9°F6.6°C 75% 5.0 mph N8.0 kmh N 12.0 mph19.3 kmh 29.65 in1004.1 mb 0.10 in2.5 mm 0.09 in2.3 mm 0.10 in2.5 mm